• Join FlightAware (Why Join?)
  • Login
  • US Flag 
06:12AM EST


 

Airport Tracker/Info


-or-


 

Live Flight TrackerFlight Track Log ✈ EJA829P ✈ 11-Jul-2013 ✈ KFRG - KACK

Flight Track Log - Related Links

Times and Time Zones

All times are in EDT time to prevent confusion due to time zone crossing. See the EJA829P flight status page for this flight to view local times or setup timezone preferences in your user account.

Time Position Orientation Groundspeed Altitude Reporting Facility
EDT Latitude Longitude Course Direction KTS MPH feet Rate Location/Type
05:31PM 40.7500 -73.4333 14° North 184 212 1,600  Level New York TRACON
05:32PM 40.8000 -73.4167 14° North 203 234 2,100 1,680 Climbing New York TRACON
05:34PM 40.8817 -73.3597 28° Northeast 231 266 6,000 2,760 Climbing Boston Center
05:35PM 40.9406 -73.2947 40° Northeast 251 289 9,400 2,460 Climbing Boston Center
05:36PM 40.9969 -73.2431 35° Northeast 275 316 11,000 1,740 Climbing Boston Center
05:37PM 41.0894 -73.1561 35° Northeast 319 367 12,900 900 Climbing Boston Center
05:38PM 41.1711 -73.0825 34° Northeast 344 396 12,900  Level Boston Center
05:39PM 41.2214 -73.0058 49° Northeast 349 402 12,900  Level Boston Center
05:40PM 41.2389 -72.8486 82° East 327 376 12,900  Level Boston Center
05:41PM 41.2539 -72.7189 81° East 338 389 12,900  Level Boston Center
05:42PM 41.2686 -72.5864 82° East 354 407 12,900  Level Boston Center
05:43PM 41.2833 -72.4456 82° East 354 407 13,000  Climbing Boston Center
05:44PM 41.3000 -72.3131 80° East 354 407 13,000  Level Boston Center
05:45PM 41.3144 -72.1914 81° East 362 417 13,000  Level Boston Center
05:46PM 41.3328 -72.0475 80° East 362 417 13,000  Level Boston Center
05:47PM 41.3364 -71.9314 88° East 362 417 13,000  Level Boston Center
05:48PM 41.3439 -71.7847 86° East 355 409 13,000  Level Boston Center
05:49PM 41.3494 -71.6686 86° East 355 409 13,000  Level Boston Center
05:50PM 41.3567 -71.5219 86° East 355 409 13,000  Level Boston Center
05:51PM 41.3453 -71.3922 97° East 350 403 13,000  Level Boston Center
05:52PM 41.3003 -71.2797 118° Southeast 345 397 13,000 -60 Level Boston Center
05:53PM 41.2511 -71.1617 119° Southeast 355 409 12,900 -600 Descending Boston Center
05:54PM 41.2017 -71.0469 120° Southeast 355 409 11,900 -1,080 Descending Boston Center
05:55PM 41.1567 -70.9347 118° Southeast 355 409 10,800 -1,080 Descending Boston Center
05:56PM 41.1219 -70.8364 115° Southeast 340 391 9,800 -1,020 Descending Boston Center
05:57PM 41.1142 -70.7292 95° East 294 338 8,800 -960 Descending Boston Center
05:58PM 41.1061 -70.6219 96° East 289 333 7,900 -1,020 Descending Boston Center
05:59PM 41.0981 -70.5203 96° East 289 333 6,800 -1,080 Descending Boston Center
06:00PM 41.0922 -70.4131 94° East 289 333 5,800 -960 Descending Boston Center
06:01PM 41.0861 -70.3086 94° East 289 333 4,900 -600 Descending Boston Center
06:02PM 41.0903 -70.2036 87° East 289 333 4,700 -660 Descending Boston Center
06:03PM 41.1111 -70.1067 74° East 289 333 3,600 -900 Descending Boston Center
06:04PM 41.1342 -70.0067 73° East 278 320 2,900 -300 Descending Boston Center
06:05PM 41.1892 -69.9467 39° Northeast 256 295 3,000  Climbing Boston Center
06:06PM 41.2486 -69.9083 26° Northeast 218 251 3,000  Level Boston Center
06:07PM 41.2958 -69.8706 31° Northeast 207 238 3,000  Level Boston Center
06:08PM 41.3389 -69.8411 27° Northeast 194 223 3,000  Level Boston Center
06:09PM 41.3819 -69.8172 23° Northeast 182 209 3,000 -420 Level Boston Center
06:10PM 41.4142 -69.8575 317° Northwest 140 161 2,200 -540 Descending Boston Center
06:11PM 41.3858 -69.8947 225° Southwest 79 91 2,000 -120 Descending Boston Center
06:12PM 41.3617 -69.9258 224° Southwest 102 117 2,000  Level Boston Center
06:13PM 41.3372 -69.9575 224° Southwest 116 133 2,000 -240 Level Boston Center
06:14PM 41.3108 -69.9889 222° Southwest 121 139 1,500 -540 Descending Boston Center
06:15PM 41.2928 -70.0172 230° Southwest 115 132 1,000 -540 Descending Boston Center
06:16PM 41.2725 -70.0400 220° Southwest 110 127 500 -300 Descending Boston Center
06:17PM 41.2542 -70.0683 229° Southwest 110 127 500 5,220 Level Boston Center
06:18PM 41.2339 -70.0967 226° Southwest 110 127 11,000 10,500 Climbing Boston Center